Time,TemperatureF,DewpointF,PressureIn,WindDirection,WindDirectionDegrees,WindSpeedMPH,WindSpeedGustMPH,Humidity,HourlyPrecipIn,Conditions,Clouds,dailyrainin,SolarRadiationWatts/m^2,SoftwareType,DateUTC
2013-03-08 00:00:00,33.1,26.0,30.39,NE,49,0.0,3.0,75,0.00,,,0.00,0,weatherlink.com 1.10,2013-03-08 05:00:00,
2013-03-08 00:15:00,33.1,26.0,30.39,ENE,57,0.0,2.0,75,0.00,,,0.00,0,weatherlink.com 1.10,2013-03-08 05:15:00,
2013-03-08 00:30:00,32.9,26.0,30.39,SE,146,0.0,2.0,75,0.00,,,0.00,0,weatherlink.com 1.10,2013-03-08 05:30:00,
2013-03-08 00:45:00,32.9,26.0,30.39,South,173,0.0,2.0,76,0.00,,,0.00,0,weatherlink.com 1.10,2013-03-08 05:45:00,
2013-03-08 01:01:00,32.9,26.0,30.39,ENE,60,0.0,1.0,75,0.00,,,0.00,0,weatherlink.com 1.10,2013-03-08 06:01:00,
2013-03-08 01:16:00,32.9,26.0,30.39,NE,42,0.0,2.0,75,0.00,,,0.00,0,weatherlink.com 1.10,2013-03-08 06:16:00,
2013-03-08 01:31:00,32.8,26.0,30.39,ENE,57,0.0,2.0,76,0.00,,,0.00,0,weatherlink.com 1.10,2013-03-08 06:31:00,
2013-03-08 01:46:00,32.8,26.0,30.39,ENE,65,2.0,3.0,76,0.00,,,0.00,0,weatherlink.com 1.10,2013-03-08 06:46:00,
2013-03-08 02:01:00,32.9,26.0,30.39,East,80,0.0,3.0,75,0.00,,,0.00,0,weatherlink.com 1.10,2013-03-08 07:01:00,
2013-03-08 02:16:00,32.8,26.0,30.39,ENE,74,0.0,3.0,76,0.00,,,0.00,0,weatherlink.com 1.10,2013-03-08 07:16:00,
2013-03-08 02:31:00,32.7,26.0,30.39,ENE,74,0.0,2.0,76,0.00,,,0.00,0,weatherlink.com 1.10,2013-03-08 07:31:00,
2013-03-08 02:46:00,32.2,25.0,30.39,ENE,65,0.0,1.0,76,0.00,,,0.00,0,weatherlink.com 1.10,2013-03-08 07:46:00,
2013-03-08 03:01:00,31.5,25.0,30.39,ENE,65,0.0,1.0,76,0.00,,,0.00,0,weatherlink.com 1.10,2013-03-08 08:01:00,
2013-03-08 03:16:00,30.9,25.0,30.39,ENE,65,0.0,0.0,77,0.00,,,0.00,0,weatherlink.com 1.10,2013-03-08 08:16:00,
2013-03-08 03:31:00,30.3,24.0,30.38,ENE,65,0.0,0.0,78,0.00,,,0.00,0,weatherlink.com 1.10,2013-03-08 08:31:00,
2013-03-08 03:46:00,29.7,24.0,30.38,NNW,332,0.0,1.0,79,0.00,,,0.00,0,weatherlink.com 1.10,2013-03-08 08:46:00,
2013-03-08 04:01:00,29.1,24.0,30.38,NNW,332,0.0,0.0,80,0.00,,,0.00,0,weatherlink.com 1.10,2013-03-08 09:01:00,
2013-03-08 04:16:00,28.8,24.0,30.38,NNW,332,0.0,0.0,81,0.00,,,0.00,0,weatherlink.com 1.10,2013-03-08 09:16:00,
2013-03-08 04:31:00,28.5,24.0,30.39,NNW,332,0.0,0.0,82,0.00,,,0.00,0,weatherlink.com 1.10,2013-03-08 09:31:00,
2013-03-08 04:46:00,28.4,24.0,30.39,NNW,332,0.0,1.0,83,0.00,,,0.00,0,weatherlink.com 1.10,2013-03-08 09:46:00,
2013-03-08 05:01:00,28.2,24.0,30.40,NNW,332,0.0,1.0,83,0.00,,,0.00,0,weatherlink.com 1.10,2013-03-08 10:01:00,
2013-03-08 05:16:00,28.2,24.0,30.41,NNW,332,0.0,0.0,84,0.00,,,0.00,0,weatherlink.com 1.10,2013-03-08 10:16:00,
2013-03-08 05:31:00,28.1,24.0,30.41,NNW,332,0.0,0.0,84,0.00,,,0.00,0,weatherlink.com 1.10,2013-03-08 10:31:00,
2013-03-08 05:46:00,27.9,24.0,30.42,NNW,332,0.0,0.0,84,0.00,,,0.00,0,weatherlink.com 1.10,2013-03-08 10:46:00,
2013-03-08 06:01:00,27.8,24.0,30.41,NNW,332,0.0,1.0,84,0.00,,,0.00,0,weatherlink.com 1.10,2013-03-08 11:01:00,
2013-03-08 06:16:00,27.6,24.0,30.41,NNW,332,0.0,0.0,85,0.00,,,0.00,0,weatherlink.com 1.10,2013-03-08 11:16:00,
2013-03-08 06:31:00,27.6,24.0,30.42,NNE,30,0.0,3.0,85,0.00,,,0.00,0,weatherlink.com 1.10,2013-03-08 11:31:00,
2013-03-08 06:46:00,27.6,24.0,30.42,NNW,337,0.0,0.0,85,0.00,,,0.00,0,weatherlink.com 1.10,2013-03-08 11:46:00,
2013-03-08 07:01:00,27.5,24.0,30.42,NNW,333,0.0,2.0,86,0.00,,,0.00,5,weatherlink.com 1.10,2013-03-08 12:01:00,
2013-03-08 07:16:00,27.5,24.0,30.43,NNW,333,0.0,0.0,86,0.00,,,0.00,14,weatherlink.com 1.10,2013-03-08 12:16:00,
2013-03-08 07:31:00,27.3,24.0,30.44,NNW,333,0.0,0.0,86,0.00,,,0.00,25,weatherlink.com 1.10,2013-03-08 12:31:00,
2013-03-08 07:46:00,27.5,24.0,30.44,NNW,344,0.0,1.0,86,0.00,,,0.00,39,weatherlink.com 1.10,2013-03-08 12:46:00,
2013-03-08 08:01:00,28.2,25.0,30.45,ENE,76,0.0,5.0,87,0.00,,,0.00,58,weatherlink.com 1.10,2013-03-08 13:01:00,
2013-03-08 08:16:00,30.4,26.0,30.46,ENE,76,3.0,5.0,83,0.00,,,0.00,248,weatherlink.com 1.10,2013-03-08 13:16:00,
2013-03-08 08:31:00,32.8,26.0,30.46,ENE,74,7.0,7.0,75,0.00,,,0.00,301,weatherlink.com 1.10,2013-03-08 13:31:00,
2013-03-08 08:46:00,34.6,26.0,30.46,East,96,2.0,4.0,71,0.00,,,0.00,350,weatherlink.com 1.10,2013-03-08 13:46:00,
2013-03-08 09:02:00,35.6,25.0,30.46,NE,53,0.0,6.0,66,0.00,,,0.00,404,weatherlink.com 1.10,2013-03-08 14:02:00,
2013-03-08 09:17:00,36.5,25.0,30.47,East,92,2.0,9.0,63,0.00,,,0.00,452,weatherlink.com 1.10,2013-03-08 14:17:00,
2013-03-08 09:32:00,37.5,25.0,30.46,ENE,63,2.0,7.0,62,0.00,,,0.00,501,weatherlink.com 1.10,2013-03-08 14:32:00,
2013-03-08 09:47:00,38.5,26.0,30.47,ENE,65,1.0,9.0,61,0.00,,,0.00,547,weatherlink.com 1.10,2013-03-08 14:47:00,
2013-03-08 10:02:00,38.8,26.0,30.46,NE,53,3.0,8.0,60,0.01,,,0.01,594,weatherlink.com 1.10,2013-03-08 15:02:00,
2013-03-08 10:17:00,39.6,26.0,30.45,ENE,74,3.0,8.0,59,0.01,,,0.01,633,weatherlink.com 1.10,2013-03-08 15:17:00,
2013-03-08 10:32:00,40.6,26.0,30.45,ENE,63,2.0,6.0,56,0.01,,,0.01,671,weatherlink.com 1.10,2013-03-08 15:32:00,
2013-03-08 10:47:00,41.9,27.0,30.45,East,80,2.0,10.0,56,0.01,,,0.01,701,weatherlink.com 1.10,2013-03-08 15:47:00,
2013-03-08 11:02:00,42.1,26.0,30.44,East,101,1.0,6.0,54,0.00,,,0.01,740,weatherlink.com 1.10,2013-03-08 16:02:00,
2013-03-08 11:17:00,43.2,28.0,30.44,NNE,24,5.0,8.0,55,0.00,,,0.01,765,weatherlink.com 1.10,2013-03-08 16:17:00,
2013-03-08 11:32:00,45.4,29.0,30.43,ESE,116,1.0,4.0,53,0.00,,,0.01,786,weatherlink.com 1.10,2013-03-08 16:32:00,
2013-03-08 11:47:00,44.9,29.0,30.44,ENE,78,0.0,5.0,53,0.00,,,0.01,803,weatherlink.com 1.10,2013-03-08 16:47:00,
2013-03-08 12:02:00,46.0,30.0,30.43,ENE,78,1.0,5.0,54,0.00,,,0.01,823,weatherlink.com 1.10,2013-03-08 17:02:00,
2013-03-08 12:17:00,46.5,30.0,30.43,ENE,74,0.0,5.0,53,0.00,,,0.01,831,weatherlink.com 1.10,2013-03-08 17:17:00,
2013-03-08 12:32:00,47.0,29.0,30.43,SE,127,2.0,5.0,49,0.00,,,0.01,837,weatherlink.com 1.10,2013-03-08 17:32:00,
2013-03-08 12:47:00,46.8,28.0,30.43,NE,38,1.0,5.0,48,0.00,,,0.01,831,weatherlink.com 1.10,2013-03-08 17:47:00,
2013-03-08 13:02:00,48.2,28.0,30.42,NE,47,3.0,5.0,45,0.00,,,0.01,833,weatherlink.com 1.10,2013-03-08 18:02:00,
2013-03-08 13:17:00,47.0,28.0,30.42,WNW,303,1.0,7.0,48,0.00,,,0.01,831,weatherlink.com 1.10,2013-03-08 18:17:00,
2013-03-08 13:32:00,48.9,29.0,30.41,West,265,0.0,4.0,46,0.00,,,0.01,824,weatherlink.com 1.10,2013-03-08 18:32:00,
2013-03-08 13:48:00,49.9,30.0,30.40,East,80,0.0,4.0,47,0.00,,,0.01,814,weatherlink.com 1.10,2013-03-08 18:48:00,
2013-03-08 14:03:00,48.5,27.0,30.40,ENE,73,3.0,5.0,43,0.00,,,0.01,798,weatherlink.com 1.10,2013-03-08 19:03:00,
2013-03-08 14:18:00,49.1,28.0,30.40,SSE,166,3.0,4.0,44,0.00,,,0.01,770,weatherlink.com 1.10,2013-03-08 19:18:00,
2013-03-08 14:33:00,49.5,27.0,30.40,NE,55,4.0,5.0,42,0.00,,,0.01,742,weatherlink.com 1.10,2013-03-08 19:33:00,
2013-03-08 14:48:00,49.1,26.0,30.38,ENE,67,0.0,7.0,41,0.00,,,0.01,708,weatherlink.com 1.10,2013-03-08 19:48:00,
2013-03-08 15:03:00,49.6,27.0,30.38,East,98,2.0,7.0,41,0.00,,,0.01,671,weatherlink.com 1.10,2013-03-08 20:03:00,
2013-03-08 15:18:00,50.1,27.0,30.37,ENE,65,1.0,7.0,41,0.00,,,0.01,626,weatherlink.com 1.10,2013-03-08 20:18:00,
2013-03-08 15:33:00,49.9,28.0,30.36,ENE,59,4.0,5.0,43,0.00,,,0.01,577,weatherlink.com 1.10,2013-03-08 20:33:00,
2013-03-08 15:48:00,49.6,27.0,30.36,SW,219,0.0,3.0,42,0.00,,,0.01,120,weatherlink.com 1.10,2013-03-08 20:48:00,
2013-03-08 16:03:00,49.8,26.0,30.36,ENE,70,0.0,5.0,40,0.00,,,0.01,46,weatherlink.com 1.10,2013-03-08 21:03:00,
2013-03-08 16:18:00,49.8,26.0,30.36,ENE,63,2.0,3.0,40,0.00,,,0.01,40,weatherlink.com 1.10,2013-03-08 21:18:00,
2013-03-08 16:33:00,49.5,26.0,30.35,NNE,19,2.0,7.0,41,0.00,,,0.01,37,weatherlink.com 1.10,2013-03-08 21:33:00,
2013-03-08 16:48:00,49.4,27.0,30.35,East,82,2.0,4.0,42,0.00,,,0.01,33,weatherlink.com 1.10,2013-03-08 21:48:00,
2013-03-08 17:03:00,49.2,27.0,30.34,ENE,61,2.0,5.0,42,0.00,,,0.01,30,weatherlink.com 1.10,2013-03-08 22:03:00,
2013-03-08 17:18:00,48.9,27.0,30.34,ENE,57,2.0,4.0,42,0.00,,,0.01,25,weatherlink.com 1.10,2013-03-08 22:18:00,
2013-03-08 17:33:00,48.8,27.0,30.34,NE,49,3.0,4.0,43,0.00,,,0.01,21,weatherlink.com 1.10,2013-03-08 22:33:00,
2013-03-08 17:48:00,48.2,26.0,30.35,ENE,65,1.0,4.0,43,0.00,,,0.01,18,weatherlink.com 1.10,2013-03-08 22:48:00,
2013-03-08 18:03:00,47.9,27.0,30.35,ENE,70,0.0,1.0,45,0.00,,,0.01,14,weatherlink.com 1.10,2013-03-08 23:03:00,
2013-03-08 18:18:00,47.4,28.0,30.35,ENE,71,0.0,0.0,48,0.00,,,0.01,9,weatherlink.com 1.10,2013-03-08 23:18:00,
2013-03-08 18:33:00,46.7,29.0,30.36,ENE,71,0.0,0.0,50,0.00,,,0.01,0,weatherlink.com 1.10,2013-03-08 23:33:00,
2013-03-08 18:48:00,45.7,28.0,30.36,NNE,29,0.0,0.0,51,0.00,,,0.01,0,weatherlink.com 1.10,2013-03-08 23:48:00,
2013-03-08 19:03:00,44.8,28.0,30.36,NNE,29,0.0,0.0,52,0.00,,,0.01,0,weatherlink.com 1.10,2013-03-09 00:03:00,
2013-03-08 19:18:00,43.8,28.0,30.36,NNE,29,0.0,0.0,54,0.00,,,0.01,0,weatherlink.com 1.10,2013-03-09 00:18:00,
2013-03-08 19:33:00,42.9,28.0,30.36,NNE,29,0.0,0.0,55,0.00,,,0.01,0,weatherlink.com 1.10,2013-03-09 00:33:00,
2013-03-08 19:48:00,42.1,27.0,30.36,NNE,29,0.0,0.0,56,0.00,,,0.01,0,weatherlink.com 1.10,2013-03-09 00:48:00,
2013-03-08 20:03:00,41.3,27.0,30.35,NNE,29,0.0,0.0,57,0.00,,,0.01,0,weatherlink.com 1.10,2013-03-09 01:03:00,
2013-03-08 20:18:00,40.8,27.0,30.36,NNE,29,0.0,0.0,59,0.00,,,0.01,0,weatherlink.com 1.10,2013-03-09 01:18:00,
2013-03-08 20:33:00,40.3,27.0,30.36,NNE,29,0.0,0.0,59,0.00,,,0.01,0,weatherlink.com 1.10,2013-03-09 01:33:00,
2013-03-08 20:47:00,39.9,27.0,30.36,NNE,29,0.0,0.0,60,0.00,,,0.01,0,weatherlink.com 1.10,2013-03-09 01:47:00,
2013-03-08 21:03:00,39.6,27.0,30.36,NNE,29,0.0,0.0,61,0.00,,,0.01,0,weatherlink.com 1.10,2013-03-09 02:03:00,
2013-03-08 21:18:00,39.3,27.0,30.36,NNE,29,0.0,0.0,62,0.00,,,0.01,0,weatherlink.com 1.10,2013-03-09 02:18:00,
2013-03-08 21:33:00,38.9,27.0,30.36,NNE,29,0.0,0.0,63,0.00,,,0.01,0,weatherlink.com 1.10,2013-03-09 02:33:00,
2013-03-08 21:48:00,38.6,28.0,30.37,NNE,29,0.0,0.0,65,0.00,,,0.01,0,weatherlink.com 1.10,2013-03-09 02:48:00,
2013-03-08 22:03:00,38.5,28.0,30.36,NNE,29,0.0,0.0,66,0.00,,,0.01,0,weatherlink.com 1.10,2013-03-09 03:03:00,
2013-03-08 22:18:00,38.3,28.0,30.36,NNE,29,0.0,0.0,67,0.00,,,0.01,0,weatherlink.com 1.10,2013-03-09 03:18:00,
2013-03-08 22:33:00,38.0,28.0,30.36,NNE,29,0.0,0.0,67,0.00,,,0.01,0,weatherlink.com 1.10,2013-03-09 03:33:00,
2013-03-08 22:48:00,37.6,28.0,30.36,NNE,29,0.0,0.0,68,0.00,,,0.01,0,weatherlink.com 1.10,2013-03-09 03:48:00,
2013-03-08 23:03:00,37.3,28.0,30.35,NNE,29,0.0,0.0,68,0.00,,,0.01,0,weatherlink.com 1.10,2013-03-09 04:03:00,
2013-03-08 23:18:00,37.0,28.0,30.35,NNE,29,0.0,0.0,70,0.00,,,0.01,0,weatherlink.com 1.10,2013-03-09 04:18:00,
2013-03-08 23:33:00,36.8,28.0,30.36,NNE,29,0.0,0.0,70,0.00,,,0.01,0,weatherlink.com 1.10,2013-03-09 04:33:00,
2013-03-08 23:48:00,36.5,28.0,30.35,ENE,63,1.0,3.0,71,0.00,,,0.01,0,weatherlink.com 1.10,2013-03-09 04:48:00,